createdAt,value
2023-09-04T00:08:22.454Z,13.3
2023-09-04T00:18:24.597Z,13.2
2023-09-04T00:38:29.004Z,12.9
2023-09-04T00:48:30.854Z,12.9
2023-09-04T00:58:33.476Z,13
2023-09-04T01:08:35.241Z,13
2023-09-04T01:18:37.647Z,12.8
2023-09-04T01:38:42.001Z,12.7
2023-09-04T01:48:44.394Z,12.6
2023-09-04T01:58:46.794Z,12.4
2023-09-04T02:08:49.272Z,12.2
2023-09-04T02:18:51.704Z,12.1
2023-09-04T02:28:53.416Z,12.1
2023-09-04T02:48:58.235Z,11.8
2023-09-04T02:59:00.500Z,11.8
2023-09-04T03:09:02.368Z,11.7
2023-09-04T03:19:04.416Z,11.7
2023-09-04T03:29:07.067Z,11.6
2023-09-04T03:39:09.291Z,11.5
2023-09-04T03:49:11.708Z,11.5
2023-09-04T03:59:13.994Z,11.5
2023-09-04T04:09:15.950Z,11.5
2023-09-04T04:19:18.415Z,11.5
2023-09-04T04:29:21.037Z,11.4
2023-09-04T04:39:23.484Z,11.3
2023-09-04T04:49:26.121Z,11.3
2023-09-04T04:59:27.808Z,11.2
2023-09-04T05:09:29.809Z,11.2
2023-09-04T05:29:33.699Z,11.4
2023-09-04T05:39:35.441Z,11.5
2023-09-04T05:49:37.861Z,11.7
2023-09-04T05:59:40.228Z,12.1
2023-09-04T06:09:43.645Z,13.1
2023-09-04T06:19:44.372Z,14.1
2023-09-04T06:29:46.461Z,14.5
2023-09-04T06:39:48.896Z,14.8
2023-09-04T07:09:56.062Z,16.2
2023-09-04T07:19:58.286Z,16.7
2023-09-04T07:30:00.158Z,17.1
2023-09-04T07:40:02.490Z,17.7
2023-09-04T08:00:06.783Z,17.7
2023-09-04T08:20:11.519Z,18.1
2023-09-04T08:30:13.619Z,18.5
2023-09-04T08:50:17.712Z,18.9
2023-09-04T09:00:20.150Z,19
2023-09-04T09:20:24.432Z,19.7
2023-09-04T09:30:26.494Z,19.9
2023-09-04T09:40:28.710Z,20.4
2023-09-04T09:50:30.810Z,20.8
2023-09-04T10:00:32.960Z,21.2
2023-09-04T10:10:35.187Z,21.3
2023-09-04T10:20:36.992Z,21.5
2023-09-04T10:30:38.645Z,21.8
2023-09-04T14:11:27.519Z,25.2
2023-09-04T14:21:29.240Z,25.2
2023-09-04T14:31:31.705Z,25.2
2023-09-04T14:41:33.719Z,25.1
2023-09-04T14:51:35.864Z,25.4
2023-09-04T15:01:37.576Z,25.2
2023-09-04T15:11:39.428Z,25.2
2023-09-04T15:21:41.270Z,25.2
2023-09-04T15:31:43.256Z,25.3
2023-09-04T15:41:45.071Z,25.1
2023-09-04T15:51:47.415Z,25.2
2023-09-04T16:01:50.067Z,25.1
2023-09-04T16:11:51.822Z,24.9
2023-09-04T16:21:53.532Z,24.7
2023-09-04T16:31:56.150Z,24.7
2023-09-04T16:41:58.724Z,24.6
2023-09-04T16:52:01.532Z,24.3
2023-09-04T17:42:10.850Z,21.1
2023-09-04T17:52:13.316Z,20.8
2023-09-04T18:02:15.075Z,20.5
2023-09-04T18:12:17.564Z,20.2
2023-09-04T18:22:19.465Z,20
2023-09-04T18:32:21.205Z,19.7
2023-09-04T18:42:23.711Z,19.4
2023-09-04T18:52:25.681Z,19.2
2023-09-04T19:02:27.820Z,18.9
2023-09-04T19:12:30.017Z,18.7
2023-09-04T19:22:31.971Z,18.5
2023-09-04T19:32:33.773Z,18.4
2023-09-04T19:42:36.027Z,18.5
2023-09-04T19:52:37.679Z,18.6
2023-09-04T20:02:40.142Z,18.4
2023-09-04T20:12:42.202Z,18.3
2023-09-04T20:22:44.295Z,18.2
2023-09-04T20:32:46.510Z,18
2023-09-04T20:42:48.544Z,17.8
2023-09-04T20:52:50.316Z,17.6
2023-09-04T21:22:57.858Z,17.4
2023-09-04T21:43:02.358Z,17.2
2023-09-04T21:53:04.667Z,17.2
2023-09-04T22:43:14.753Z,17.2
2023-09-04T23:33:25.580Z,16.5
2023-09-04T23:43:27.789Z,16.1
